sensor_id;sensor_type;location;lat;lon;timestamp;temperature;humidity
19868;DHT22;10096;51.112;6.776;2022-07-03T00:02:03;20.50;99.90
19868;DHT22;10096;51.112;6.776;2022-07-03T00:04:30;20.50;99.90
19868;DHT22;10096;51.112;6.776;2022-07-03T00:06:57;20.30;99.90
19868;DHT22;10096;51.112;6.776;2022-07-03T00:09:24;20.20;99.90
19868;DHT22;10096;51.112;6.776;2022-07-03T00:11:51;20.30;99.90
19868;DHT22;10096;51.112;6.776;2022-07-03T00:14:18;20.30;99.90
19868;DHT22;10096;51.112;6.776;2022-07-03T00:16:47;20.30;99.90
19868;DHT22;10096;51.112;6.776;2022-07-03T00:19:14;20.40;99.90
19868;DHT22;10096;51.112;6.776;2022-07-03T00:21:45;20.10;1.00
19868;DHT22;10096;51.112;6.776;2022-07-03T00:24:20;19.80;1.00
19868;DHT22;10096;51.112;6.776;2022-07-03T00:26:51;19.70;1.00
19868;DHT22;10096;51.112;6.776;2022-07-03T00:29:20;19.90;1.00
19868;DHT22;10096;51.112;6.776;2022-07-03T00:31:49;19.70;1.00
19868;DHT22;10096;51.112;6.776;2022-07-03T00:34:17;19.60;1.00
19868;DHT22;10096;51.112;6.776;2022-07-03T00:36:46;19.60;1.00
19868;DHT22;10096;51.112;6.776;2022-07-03T00:39:14;19.60;1.00
19868;DHT22;10096;51.112;6.776;2022-07-03T00:41:44;19.60;1.00
19868;DHT22;10096;51.112;6.776;2022-07-03T00:44:11;19.70;1.00
19868;DHT22;10096;51.112;6.776;2022-07-03T00:46:40;19.70;1.00
19868;DHT22;10096;51.112;6.776;2022-07-03T00:49:10;19.60;1.00
19868;DHT22;10096;51.112;6.776;2022-07-03T00:51:38;19.70;1.00
19868;DHT22;10096;51.112;6.776;2022-07-03T00:54:07;19.90;1.00
19868;DHT22;10096;51.112;6.776;2022-07-03T00:56:38;19.50;1.00
19868;DHT22;10096;51.112;6.776;2022-07-03T00:59:06;19.40;1.00
19868;DHT22;10096;51.112;6.776;2022-07-03T01:01:35;19.40;1.00
19868;DHT22;10096;51.112;6.776;2022-07-03T01:04:22;19.50;1.00
19868;DHT22;10096;51.112;6.776;2022-07-03T01:06:55;19.30;1.00
19868;DHT22;10096;51.112;6.776;2022-07-03T01:09:33;19.40;1.00
19868;DHT22;10096;51.112;6.776;2022-07-03T01:12:03;19.20;1.00
19868;DHT22;10096;51.112;6.776;2022-07-03T01:14:56;19.30;1.00
19868;DHT22;10096;51.112;6.776;2022-07-03T01:17:32;19.20;1.00
19868;DHT22;10096;51.112;6.776;2022-07-03T01:20:04;19.00;1.00
19868;DHT22;10096;51.112;6.776;2022-07-03T01:22:34;19.00;1.00
19868;DHT22;10096;51.112;6.776;2022-07-03T01:25:14;19.00;1.00
19868;DHT22;10096;51.112;6.776;2022-07-03T01:28:03;19.30;1.00
19868;DHT22;10096;51.112;6.776;2022-07-03T01:30:36;19.00;1.00
19868;DHT22;10096;51.112;6.776;2022-07-03T01:33:05;18.90;1.00
19868;DHT22;10096;51.112;6.776;2022-07-03T01:35:34;18.80;1.00
19868;DHT22;10096;51.112;6.776;2022-07-03T01:38:04;18.60;1.00
19868;DHT22;10096;51.112;6.776;2022-07-03T01:40:34;18.70;1.00
19868;DHT22;10096;51.112;6.776;2022-07-03T01:43:05;18.50;1.00
19868;DHT22;10096;51.112;6.776;2022-07-03T01:45:38;18.20;1.00
19868;DHT22;10096;51.112;6.776;2022-07-03T01:48:08;18.10;48.80
19868;DHT22;10096;51.112;6.776;2022-07-03T01:50:37;18.00;59.70
19868;DHT22;10096;51.112;6.776;2022-07-03T01:53:07;18.00;1.00
19868;DHT22;10096;51.112;6.776;2022-07-03T01:55:38;18.10;10.10
19868;DHT22;10096;51.112;6.776;2022-07-03T01:58:06;18.10;15.80
19868;DHT22;10096;51.112;6.776;2022-07-03T02:00:41;18.10;1.00
19868;DHT22;10096;51.112;6.776;2022-07-03T02:03:11;18.20;1.00
19868;DHT22;10096;51.112;6.776;2022-07-03T02:05:43;18.40;1.00
19868;DHT22;10096;51.112;6.776;2022-07-03T02:08:30;18.40;1.00
19868;DHT22;10096;51.112;6.776;2022-07-03T02:11:13;18.30;1.00
19868;DHT22;10096;51.112;6.776;2022-07-03T02:13:50;18.70;1.00
19868;DHT22;10096;51.112;6.776;2022-07-03T02:16:20;18.70;1.00
19868;DHT22;10096;51.112;6.776;2022-07-03T02:18:55;18.50;1.00
19868;DHT22;10096;51.112;6.776;2022-07-03T02:21:27;18.50;1.00
19868;DHT22;10096;51.112;6.776;2022-07-03T02:24:03;18.60;1.00
19868;DHT22;10096;51.112;6.776;2022-07-03T02:26:37;18.50;1.00
19868;DHT22;10096;51.112;6.776;2022-07-03T02:29:07;18.00;1.00
19868;DHT22;10096;51.112;6.776;2022-07-03T02:31:40;18.00;1.00
19868;DHT22;10096;51.112;6.776;2022-07-03T02:34:13;17.80;6.10
19868;DHT22;10096;51.112;6.776;2022-07-03T02:36:46;17.90;1.00
19868;DHT22;10096;51.112;6.776;2022-07-03T02:39:18;18.30;1.00
19868;DHT22;10096;51.112;6.776;2022-07-03T02:41:49;18.30;1.00
19868;DHT22;10096;51.112;6.776;2022-07-03T02:44:28;18.30;1.00
19868;DHT22;10096;51.112;6.776;2022-07-03T02:47:02;18.50;1.00
19868;DHT22;10096;51.112;6.776;2022-07-03T02:49:50;18.40;1.00
19868;DHT22;10096;51.112;6.776;2022-07-03T02:52:28;18.40;1.00
19868;DHT22;10096;51.112;6.776;2022-07-03T02:55:01;18.10;1.00
19868;DHT22;10096;51.112;6.776;2022-07-03T02:57:37;18.10;1.00
19868;DHT22;10096;51.112;6.776;2022-07-03T03:00:08;17.80;1.00
19868;DHT22;10096;51.112;6.776;2022-07-03T03:02:42;17.90;1.00
19868;DHT22;10096;51.112;6.776;2022-07-03T03:05:22;18.30;1.00
19868;DHT22;10096;51.112;6.776;2022-07-03T03:08:01;18.10;1.00
19868;DHT22;10096;51.112;6.776;2022-07-03T03:10:29;17.60;1.00
19868;DHT22;10096;51.112;6.776;2022-07-03T03:13:03;17.40;80.60
19868;DHT22;10096;51.112;6.776;2022-07-03T03:15:32;17.40;99.90
19868;DHT22;10096;51.112;6.776;2022-07-03T03:18:03;17.30;99.90
19868;DHT22;10096;51.112;6.776;2022-07-03T03:20:32;17.50;61.90
19868;DHT22;10096;51.112;6.776;2022-07-03T03:23:12;17.20;99.90
19868;DHT22;10096;51.112;6.776;2022-07-03T03:25:43;17.20;99.90
19868;DHT22;10096;51.112;6.776;2022-07-03T03:28:10;16.90;99.90
19868;DHT22;10096;51.112;6.776;2022-07-03T03:30:40;17.30;71.10
19868;DHT22;10096;51.112;6.776;2022-07-03T03:33:07;17.50;1.00
19868;DHT22;10096;51.112;6.776;2022-07-03T03:35:35;17.90;1.00
19868;DHT22;10096;51.112;6.776;2022-07-03T03:38:03;17.70;1.00
19868;DHT22;10096;51.112;6.776;2022-07-03T03:40:32;17.70;1.00
19868;DHT22;10096;51.112;6.776;2022-07-03T03:42:59;17.50;1.00
19868;DHT22;10096;51.112;6.776;2022-07-03T03:45:27;17.60;1.10
19868;DHT22;10096;51.112;6.776;2022-07-03T03:47:55;17.50;43.40
19868;DHT22;10096;51.112;6.776;2022-07-03T03:50:23;17.30;47.90
19868;DHT22;10096;51.112;6.776;2022-07-03T03:52:50;17.20;51.70
19868;DHT22;10096;51.112;6.776;2022-07-03T03:55:18;17.30;66.60
19868;DHT22;10096;51.112;6.776;2022-07-03T03:57:45;17.30;63.50
19868;DHT22;10096;51.112;6.776;2022-07-03T04:00:13;17.40;52.30
19868;DHT22;10096;51.112;6.776;2022-07-03T04:02:40;17.70;1.00
19868;DHT22;10096;51.112;6.776;2022-07-03T04:05:09;17.80;1.00
19868;DHT22;10096;51.112;6.776;2022-07-03T04:07:36;18.20;1.00
19868;DHT22;10096;51.112;6.776;2022-07-03T04:10:04;18.50;1.00
19868;DHT22;10096;51.112;6.776;2022-07-03T04:12:31;18.60;1.00
19868;DHT22;10096;51.112;6.776;2022-07-03T04:14:58;18.90;1.00
19868;DHT22;10096;51.112;6.776;2022-07-03T04:17:25;20.10;1.00
19868;DHT22;10096;51.112;6.776;2022-07-03T04:19:52;20.90;1.00
19868;DHT22;10096;51.112;6.776;2022-07-03T04:22:21;21.40;1.00
19868;DHT22;10096;51.112;6.776;2022-07-03T04:24:48;22.40;99.90
19868;DHT22;10096;51.112;6.776;2022-07-03T04:27:15;22.90;99.90
19868;DHT22;10096;51.112;6.776;2022-07-03T04:29:41;23.70;99.90
19868;DHT22;10096;51.112;6.776;2022-07-03T04:32:08;24.40;99.90
19868;DHT22;10096;51.112;6.776;2022-07-03T04:34:36;25.10;99.90
19868;DHT22;10096;51.112;6.776;2022-07-03T04:37:03;24.90;99.90
19868;DHT22;10096;51.112;6.776;2022-07-03T04:39:31;25.20;99.90
19868;DHT22;10096;51.112;6.776;2022-07-03T04:41:58;25.30;99.90
19868;DHT22;10096;51.112;6.776;2022-07-03T04:44:25;26.00;99.90
19868;DHT22;10096;51.112;6.776;2022-07-03T04:46:53;26.60;99.90
19868;DHT22;10096;51.112;6.776;2022-07-03T04:49:20;26.50;99.90
19868;DHT22;10096;51.112;6.776;2022-07-03T04:51:47;26.60;99.90
19868;DHT22;10096;51.112;6.776;2022-07-03T04:54:14;27.00;99.90
19868;DHT22;10096;51.112;6.776;2022-07-03T04:56:44;27.70;99.90
19868;DHT22;10096;51.112;6.776;2022-07-03T04:59:11;28.50;99.90
19868;DHT22;10096;51.112;6.776;2022-07-03T05:01:38;28.90;99.90
19868;DHT22;10096;51.112;6.776;2022-07-03T05:04:06;29.80;99.90
19868;DHT22;10096;51.112;6.776;2022-07-03T05:06:33;29.50;99.90
19868;DHT22;10096;51.112;6.776;2022-07-03T05:09:00;28.50;99.90
19868;DHT22;10096;51.112;6.776;2022-07-03T05:11:28;27.60;99.90
19868;DHT22;10096;51.112;6.776;2022-07-03T05:13:57;27.60;99.90
19868;DHT22;10096;51.112;6.776;2022-07-03T05:16:24;28.20;99.90
19868;DHT22;10096;51.112;6.776;2022-07-03T05:18:53;28.50;99.90
19868;DHT22;10096;51.112;6.776;2022-07-03T05:21:20;28.50;99.90
19868;DHT22;10096;51.112;6.776;2022-07-03T05:23:47;27.80;99.90
19868;DHT22;10096;51.112;6.776;2022-07-03T05:26:16;27.50;99.90
19868;DHT22;10096;51.112;6.776;2022-07-03T05:28:44;28.30;99.90
19868;DHT22;10096;51.112;6.776;2022-07-03T05:31:13;28.90;99.90
19868;DHT22;10096;51.112;6.776;2022-07-03T05:33:40;29.30;99.90
19868;DHT22;10096;51.112;6.776;2022-07-03T05:36:07;29.40;99.90
19868;DHT22;10096;51.112;6.776;2022-07-03T05:38:37;30.00;99.90
19868;DHT22;10096;51.112;6.776;2022-07-03T05:41:23;30.80;99.90
19868;DHT22;10096;51.112;6.776;2022-07-03T05:43:50;30.80;99.90
19868;DHT22;10096;51.112;6.776;2022-07-03T05:46:18;31.00;99.90
19868;DHT22;10096;51.112;6.776;2022-07-03T05:48:45;31.30;99.90
19868;DHT22;10096;51.112;6.776;2022-07-03T05:51:13;31.60;99.90
19868;DHT22;10096;51.112;6.776;2022-07-03T05:53:39;31.70;99.90
19868;DHT22;10096;51.112;6.776;2022-07-03T05:56:08;32.20;99.90
19868;DHT22;10096;51.112;6.776;2022-07-03T05:58:37;32.70;99.90
19868;DHT22;10096;51.112;6.776;2022-07-03T06:01:04;32.90;99.90
19868;DHT22;10096;51.112;6.776;2022-07-03T06:03:33;33.30;99.90
19868;DHT22;10096;51.112;6.776;2022-07-03T06:06:00;33.40;99.90
19868;DHT22;10096;51.112;6.776;2022-07-03T06:08:27;33.40;99.90
19868;DHT22;10096;51.112;6.776;2022-07-03T06:10:54;33.20;99.90
19868;DHT22;10096;51.112;6.776;2022-07-03T06:13:21;33.30;99.90
19868;DHT22;10096;51.112;6.776;2022-07-03T06:15:48;33.60;99.90
19868;DHT22;10096;51.112;6.776;2022-07-03T06:18:15;34.00;99.90
19868;DHT22;10096;51.112;6.776;2022-07-03T06:20:43;34.10;99.90
19868;DHT22;10096;51.112;6.776;2022-07-03T06:23:10;34.10;99.90
19868;DHT22;10096;51.112;6.776;2022-07-03T06:25:39;34.20;99.90
19868;DHT22;10096;51.112;6.776;2022-07-03T06:28:06;34.30;99.90
19868;DHT22;10096;51.112;6.776;2022-07-03T06:30:33;34.50;99.90
19868;DHT22;10096;51.112;6.776;2022-07-03T06:33:00;34.50;99.90
19868;DHT22;10096;51.112;6.776;2022-07-03T06:35:27;34.70;99.90
19868;DHT22;10096;51.112;6.776;2022-07-03T06:37:55;35.10;99.90
19868;DHT22;10096;51.112;6.776;2022-07-03T06:40:23;34.20;99.90
19868;DHT22;10096;51.112;6.776;2022-07-03T06:42:50;34.40;99.90
19868;DHT22;10096;51.112;6.776;2022-07-03T06:45:17;34.60;99.90
19868;DHT22;10096;51.112;6.776;2022-07-03T06:47:44;35.00;99.90
19868;DHT22;10096;51.112;6.776;2022-07-03T06:50:12;35.20;99.90
19868;DHT22;10096;51.112;6.776;2022-07-03T06:52:39;34.80;99.90
19868;DHT22;10096;51.112;6.776;2022-07-03T06:55:08;35.00;99.90
19868;DHT22;10096;51.112;6.776;2022-07-03T06:57:35;35.20;99.90
19868;DHT22;10096;51.112;6.776;2022-07-03T07:00:02;34.70;99.90
19868;DHT22;10096;51.112;6.776;2022-07-03T07:02:29;35.20;99.90
19868;DHT22;10096;51.112;6.776;2022-07-03T07:04:56;35.70;99.90
19868;DHT22;10096;51.112;6.776;2022-07-03T07:07:23;35.60;99.90
19868;DHT22;10096;51.112;6.776;2022-07-03T07:09:50;34.90;99.90
19868;DHT22;10096;51.112;6.776;2022-07-03T07:12:20;35.40;99.90
19868;DHT22;10096;51.112;6.776;2022-07-03T07:14:47;35.90;99.90
19868;DHT22;10096;51.112;6.776;2022-07-03T07:17:15;36.10;99.90
19868;DHT22;10096;51.112;6.776;2022-07-03T07:19:46;36.20;99.90
19868;DHT22;10096;51.112;6.776;2022-07-03T07:22:13;36.60;99.90
19868;DHT22;10096;51.112;6.776;2022-07-03T07:24:40;36.20;99.90
19868;DHT22;10096;51.112;6.776;2022-07-03T07:27:07;35.00;99.90
19868;DHT22;10096;51.112;6.776;2022-07-03T07:29:36;34.90;99.90
19868;DHT22;10096;51.112;6.776;2022-07-03T07:32:04;35.20;99.90
19868;DHT22;10096;51.112;6.776;2022-07-03T07:34:32;35.70;99.90
19868;DHT22;10096;51.112;6.776;2022-07-03T07:36:59;35.80;99.90
19868;DHT22;10096;51.112;6.776;2022-07-03T07:39:26;36.10;99.90
19868;DHT22;10096;51.112;6.776;2022-07-03T07:41:53;36.40;99.90
19868;DHT22;10096;51.112;6.776;2022-07-03T07:44:21;36.70;99.90
19868;DHT22;10096;51.112;6.776;2022-07-03T07:46:49;36.40;99.90
19868;DHT22;10096;51.112;6.776;2022-07-03T07:49:22;36.70;99.90
19868;DHT22;10096;51.112;6.776;2022-07-03T07:51:53;36.50;99.90
19868;DHT22;10096;51.112;6.776;2022-07-03T07:54:23;36.40;99.90
19868;DHT22;10096;51.112;6.776;2022-07-03T07:56:54;36.00;99.90
19868;DHT22;10096;51.112;6.776;2022-07-03T07:59:21;35.30;99.90
19868;DHT22;10096;51.112;6.776;2022-07-03T08:01:52;35.30;99.90
19868;DHT22;10096;51.112;6.776;2022-07-03T08:04:37;36.10;99.90
19868;DHT22;10096;51.112;6.776;2022-07-03T08:07:22;36.50;99.90
19868;DHT22;10096;51.112;6.776;2022-07-03T08:09:49;36.00;99.90
19868;DHT22;10096;51.112;6.776;2022-07-03T08:12:18;36.10;99.90
19868;DHT22;10096;51.112;6.776;2022-07-03T08:14:45;36.00;99.90
19868;DHT22;10096;51.112;6.776;2022-07-03T08:17:14;36.70;99.90
19868;DHT22;10096;51.112;6.776;2022-07-03T08:19:49;36.50;99.90
19868;DHT22;10096;51.112;6.776;2022-07-03T08:22:17;36.30;99.90
19868;DHT22;10096;51.112;6.776;2022-07-03T08:24:43;36.30;99.90
19868;DHT22;10096;51.112;6.776;2022-07-03T08:27:19;36.40;99.90
19868;DHT22;10096;51.112;6.776;2022-07-03T08:30:09;35.70;99.90
19868;DHT22;10096;51.112;6.776;2022-07-03T08:32:37;36.20;99.90
19868;DHT22;10096;51.112;6.776;2022-07-03T08:35:06;36.60;99.90
19868;DHT22;10096;51.112;6.776;2022-07-03T08:37:36;36.50;99.90
19868;DHT22;10096;51.112;6.776;2022-07-03T08:40:07;36.30;99.90
19868;DHT22;10096;51.112;6.776;2022-07-03T08:42:37;35.90;99.90
19868;DHT22;10096;51.112;6.776;2022-07-03T08:45:08;36.20;99.90
19868;DHT22;10096;51.112;6.776;2022-07-03T08:47:40;36.40;99.90
19868;DHT22;10096;51.112;6.776;2022-07-03T08:50:10;36.70;99.90
19868;DHT22;10096;51.112;6.776;2022-07-03T08:52:38;36.10;99.90
19868;DHT22;10096;51.112;6.776;2022-07-03T08:55:07;35.80;99.90
19868;DHT22;10096;51.112;6.776;2022-07-03T08:57:36;35.70;99.90
19868;DHT22;10096;51.112;6.776;2022-07-03T09:00:05;35.70;99.90
19868;DHT22;10096;51.112;6.776;2022-07-03T09:02:33;35.20;99.90
19868;DHT22;10096;51.112;6.776;2022-07-03T09:05:02;35.20;99.90
19868;DHT22;10096;51.112;6.776;2022-07-03T09:07:34;35.30;99.90
19868;DHT22;10096;51.112;6.776;2022-07-03T09:10:03;35.40;99.90
19868;DHT22;10096;51.112;6.776;2022-07-03T09:12:33;35.30;99.90
19868;DHT22;10096;51.112;6.776;2022-07-03T09:15:03;34.60;99.90
19868;DHT22;10096;51.112;6.776;2022-07-03T09:17:31;34.30;99.90
19868;DHT22;10096;51.112;6.776;2022-07-03T09:20:00;34.30;99.90
19868;DHT22;10096;51.112;6.776;2022-07-03T09:22:32;34.40;99.90
19868;DHT22;10096;51.112;6.776;2022-07-03T09:25:09;33.90;99.90
19868;DHT22;10096;51.112;6.776;2022-07-03T09:27:50;33.40;99.90
19868;DHT22;10096;51.112;6.776;2022-07-03T09:30:18;33.00;99.90
19868;DHT22;10096;51.112;6.776;2022-07-03T09:32:46;32.50;99.90
19868;DHT22;10096;51.112;6.776;2022-07-03T09:35:16;32.20;99.90
19868;DHT22;10096;51.112;6.776;2022-07-03T09:37:51;31.90;99.90
19868;DHT22;10096;51.112;6.776;2022-07-03T09:40:19;31.60;99.90
19868;DHT22;10096;51.112;6.776;2022-07-03T09:43:00;31.20;99.90
19868;DHT22;10096;51.112;6.776;2022-07-03T09:45:47;30.80;99.90
19868;DHT22;10096;51.112;6.776;2022-07-03T09:48:25;31.10;99.90
19868;DHT22;10096;51.112;6.776;2022-07-03T09:51:09;31.10;99.90
19868;DHT22;10096;51.112;6.776;2022-07-03T09:53:52;31.20;99.90
19868;DHT22;10096;51.112;6.776;2022-07-03T09:56:21;30.70;99.90
19868;DHT22;10096;51.112;6.776;2022-07-03T09:59:05;30.90;99.90
19868;DHT22;10096;51.112;6.776;2022-07-03T10:01:33;31.00;99.90
19868;DHT22;10096;51.112;6.776;2022-07-03T10:04:11;31.00;99.90
19868;DHT22;10096;51.112;6.776;2022-07-03T10:06:54;30.90;99.90
19868;DHT22;10096;51.112;6.776;2022-07-03T10:09:25;30.80;99.90
19868;DHT22;10096;51.112;6.776;2022-07-03T10:11:53;30.70;99.90
19868;DHT22;10096;51.112;6.776;2022-07-03T10:14:21;30.80;99.90
19868;DHT22;10096;51.112;6.776;2022-07-03T10:16:49;31.10;99.90
19868;DHT22;10096;51.112;6.776;2022-07-03T10:19:19;31.00;99.90
19868;DHT22;10096;51.112;6.776;2022-07-03T10:21:53;30.80;99.90
19868;DHT22;10096;51.112;6.776;2022-07-03T10:24:26;31.20;99.90
19868;DHT22;10096;51.112;6.776;2022-07-03T10:26:55;31.00;99.90
19868;DHT22;10096;51.112;6.776;2022-07-03T10:29:24;30.90;99.90
19868;DHT22;10096;51.112;6.776;2022-07-03T10:31:55;30.70;99.90
19868;DHT22;10096;51.112;6.776;2022-07-03T10:34:26;30.60;99.90
19868;DHT22;10096;51.112;6.776;2022-07-03T10:37:04;30.50;99.90
19868;DHT22;10096;51.112;6.776;2022-07-03T10:39:40;30.80;99.90
19868;DHT22;10096;51.112;6.776;2022-07-03T10:42:11;30.40;99.90
19868;DHT22;10096;51.112;6.776;2022-07-03T10:45:06;30.70;99.90
19868;DHT22;10096;51.112;6.776;2022-07-03T10:47:38;30.90;99.90
19868;DHT22;10096;51.112;6.776;2022-07-03T10:50:09;31.00;99.90
19868;DHT22;10096;51.112;6.776;2022-07-03T10:52:37;30.40;99.90
19868;DHT22;10096;51.112;6.776;2022-07-03T10:55:07;29.60;99.90
19868;DHT22;10096;51.112;6.776;2022-07-03T10:57:36;29.60;99.90
19868;DHT22;10096;51.112;6.776;2022-07-03T11:00:17;30.20;99.90
19868;DHT22;10096;51.112;6.776;2022-07-03T11:02:47;30.50;99.90
19868;DHT22;10096;51.112;6.776;2022-07-03T11:05:20;30.50;99.90
19868;DHT22;10096;51.112;6.776;2022-07-03T11:08:12;30.60;99.90
19868;DHT22;10096;51.112;6.776;2022-07-03T11:10:42;30.50;99.90
19868;DHT22;10096;51.112;6.776;2022-07-03T11:13:32;30.70;99.90
19868;DHT22;10096;51.112;6.776;2022-07-03T11:15:59;30.70;99.90
19868;DHT22;10096;51.112;6.776;2022-07-03T11:18:31;30.70;99.90
19868;DHT22;10096;51.112;6.776;2022-07-03T11:21:31;30.80;99.90
19868;DHT22;10096;51.112;6.776;2022-07-03T11:24:11;30.20;99.90
19868;DHT22;10096;51.112;6.776;2022-07-03T11:26:42;30.10;99.90
19868;DHT22;10096;51.112;6.776;2022-07-03T11:29:25;30.00;99.90
19868;DHT22;10096;51.112;6.776;2022-07-03T11:31:56;30.00;99.90
19868;DHT22;10096;51.112;6.776;2022-07-03T11:34:26;29.80;99.90
19868;DHT22;10096;51.112;6.776;2022-07-03T11:37:01;30.20;99.90
19868;DHT22;10096;51.112;6.776;2022-07-03T11:39:28;30.70;99.90
19868;DHT22;10096;51.112;6.776;2022-07-03T11:41:57;30.50;99.90
19868;DHT22;10096;51.112;6.776;2022-07-03T11:44:25;30.70;99.90
19868;DHT22;10096;51.112;6.776;2022-07-03T11:46:56;30.70;99.90
19868;DHT22;10096;51.112;6.776;2022-07-03T11:49:23;30.40;99.90
19868;DHT22;10096;51.112;6.776;2022-07-03T11:51:57;30.00;99.90
19868;DHT22;10096;51.112;6.776;2022-07-03T11:54:24;30.10;99.90
19868;DHT22;10096;51.112;6.776;2022-07-03T11:56:52;30.50;99.90
19868;DHT22;10096;51.112;6.776;2022-07-03T11:59:20;30.00;99.90
19868;DHT22;10096;51.112;6.776;2022-07-03T12:01:48;30.00;99.90
19868;DHT22;10096;51.112;6.776;2022-07-03T12:04:18;30.10;99.90
19868;DHT22;10096;51.112;6.776;2022-07-03T12:06:48;30.20;99.90
19868;DHT22;10096;51.112;6.776;2022-07-03T12:09:18;30.20;99.90
19868;DHT22;10096;51.112;6.776;2022-07-03T12:11:59;30.20;99.90
19868;DHT22;10096;51.112;6.776;2022-07-03T12:14:35;30.40;99.90
19868;DHT22;10096;51.112;6.776;2022-07-03T12:17:04;30.40;99.90
19868;DHT22;10096;51.112;6.776;2022-07-03T12:19:34;30.60;99.90
19868;DHT22;10096;51.112;6.776;2022-07-03T12:22:01;30.70;99.90
19868;DHT22;10096;51.112;6.776;2022-07-03T12:24:28;30.50;99.90
19868;DHT22;10096;51.112;6.776;2022-07-03T12:26:55;30.60;99.90
19868;DHT22;10096;51.112;6.776;2022-07-03T12:29:22;30.60;99.90
19868;DHT22;10096;51.112;6.776;2022-07-03T12:31:51;30.90;99.90
19868;DHT22;10096;51.112;6.776;2022-07-03T12:34:18;30.90;99.90
19868;DHT22;10096;51.112;6.776;2022-07-03T12:36:56;30.80;99.90
19868;DHT22;10096;51.112;6.776;2022-07-03T12:39:40;30.40;99.90
19868;DHT22;10096;51.112;6.776;2022-07-03T12:42:14;29.80;99.90
19868;DHT22;10096;51.112;6.776;2022-07-03T12:44:41;29.70;99.90
19868;DHT22;10096;51.112;6.776;2022-07-03T12:47:16;29.40;99.90
19868;DHT22;10096;51.112;6.776;2022-07-03T12:49:43;29.60;99.90
19868;DHT22;10096;51.112;6.776;2022-07-03T12:52:15;30.20;99.90
19868;DHT22;10096;51.112;6.776;2022-07-03T12:54:42;30.50;99.90
19868;DHT22;10096;51.112;6.776;2022-07-03T12:57:10;30.70;99.90
19868;DHT22;10096;51.112;6.776;2022-07-03T13:00:02;30.50;99.90
19868;DHT22;10096;51.112;6.776;2022-07-03T13:02:31;30.50;99.90
19868;DHT22;10096;51.112;6.776;2022-07-03T13:04:59;30.60;99.90
19868;DHT22;10096;51.112;6.776;2022-07-03T13:07:28;30.70;99.90
19868;DHT22;10096;51.112;6.776;2022-07-03T13:10:00;30.50;99.90
19868;DHT22;10096;51.112;6.776;2022-07-03T13:12:27;31.30;99.90
19868;DHT22;10096;51.112;6.776;2022-07-03T13:14:55;31.70;99.90
19868;DHT22;10096;51.112;6.776;2022-07-03T13:17:23;31.50;99.90
19868;DHT22;10096;51.112;6.776;2022-07-03T13:19:51;31.80;99.90
19868;DHT22;10096;51.112;6.776;2022-07-03T13:22:18;32.10;99.90
19868;DHT22;10096;51.112;6.776;2022-07-03T13:24:45;31.90;99.90
19868;DHT22;10096;51.112;6.776;2022-07-03T13:27:12;31.50;99.90
19868;DHT22;10096;51.112;6.776;2022-07-03T13:29:39;31.20;99.90
19868;DHT22;10096;51.112;6.776;2022-07-03T13:32:06;31.10;99.90
19868;DHT22;10096;51.112;6.776;2022-07-03T13:34:33;31.20;99.90
19868;DHT22;10096;51.112;6.776;2022-07-03T13:37:02;31.00;99.90
19868;DHT22;10096;51.112;6.776;2022-07-03T13:39:29;30.20;99.90
19868;DHT22;10096;51.112;6.776;2022-07-03T13:41:57;30.00;99.90
19868;DHT22;10096;51.112;6.776;2022-07-03T13:44:24;30.20;99.90
19868;DHT22;10096;51.112;6.776;2022-07-03T13:46:51;30.20;99.90
19868;DHT22;10096;51.112;6.776;2022-07-03T13:49:20;30.20;99.90
19868;DHT22;10096;51.112;6.776;2022-07-03T13:51:48;30.10;99.90
19868;DHT22;10096;51.112;6.776;2022-07-03T13:54:16;30.20;99.90
19868;DHT22;10096;51.112;6.776;2022-07-03T13:56:43;29.90;99.90
19868;DHT22;10096;51.112;6.776;2022-07-03T13:59:11;30.10;99.90
19868;DHT22;10096;51.112;6.776;2022-07-03T14:01:41;30.20;99.90
19868;DHT22;10096;51.112;6.776;2022-07-03T14:04:08;29.70;99.90
19868;DHT22;10096;51.112;6.776;2022-07-03T14:06:35;29.30;99.90
19868;DHT22;10096;51.112;6.776;2022-07-03T14:09:03;29.60;99.90
19868;DHT22;10096;51.112;6.776;2022-07-03T14:11:32;29.20;99.90
19868;DHT22;10096;51.112;6.776;2022-07-03T14:13:58;29.20;99.90
19868;DHT22;10096;51.112;6.776;2022-07-03T14:16:25;29.20;99.90
19868;DHT22;10096;51.112;6.776;2022-07-03T14:18:53;29.10;99.90
19868;DHT22;10096;51.112;6.776;2022-07-03T14:21:20;29.60;99.90
19868;DHT22;10096;51.112;6.776;2022-07-03T14:23:47;29.30;99.90
19868;DHT22;10096;51.112;6.776;2022-07-03T14:26:14;29.10;99.90
19868;DHT22;10096;51.112;6.776;2022-07-03T14:29:03;29.40;99.90
19868;DHT22;10096;51.112;6.776;2022-07-03T14:31:47;29.50;99.90
19868;DHT22;10096;51.112;6.776;2022-07-03T14:34:31;29.50;99.90
19868;DHT22;10096;51.112;6.776;2022-07-03T14:36:59;29.10;99.90
19868;DHT22;10096;51.112;6.776;2022-07-03T14:39:27;29.00;99.90
19868;DHT22;10096;51.112;6.776;2022-07-03T14:41:56;29.20;99.90
19868;DHT22;10096;51.112;6.776;2022-07-03T14:44:24;29.50;99.90
19868;DHT22;10096;51.112;6.776;2022-07-03T14:46:52;29.10;99.90
19868;DHT22;10096;51.112;6.776;2022-07-03T14:49:21;29.10;99.90
19868;DHT22;10096;51.112;6.776;2022-07-03T14:51:49;29.20;99.90
19868;DHT22;10096;51.112;6.776;2022-07-03T14:54:20;29.40;99.90
19868;DHT22;10096;51.112;6.776;2022-07-03T14:56:54;29.50;99.90
19868;DHT22;10096;51.112;6.776;2022-07-03T14:59:34;29.50;99.90
19868;DHT22;10096;51.112;6.776;2022-07-03T15:02:05;29.60;99.90
19868;DHT22;10096;51.112;6.776;2022-07-03T15:04:40;29.50;99.90
19868;DHT22;10096;51.112;6.776;2022-07-03T15:07:11;29.30;99.90
19868;DHT22;10096;51.112;6.776;2022-07-03T15:09:46;29.20;99.90
19868;DHT22;10096;51.112;6.776;2022-07-03T15:12:19;29.00;99.90
19868;DHT22;10096;51.112;6.776;2022-07-03T15:14:57;28.50;99.90
19868;DHT22;10096;51.112;6.776;2022-07-03T15:17:25;28.20;99.90
19868;DHT22;10096;51.112;6.776;2022-07-03T15:19:53;28.20;99.90
19868;DHT22;10096;51.112;6.776;2022-07-03T15:22:22;28.00;99.90
19868;DHT22;10096;51.112;6.776;2022-07-03T15:24:51;27.60;99.90
19868;DHT22;10096;51.112;6.776;2022-07-03T15:27:20;27.60;99.90
19868;DHT22;10096;51.112;6.776;2022-07-03T15:29:47;27.70;99.90
19868;DHT22;10096;51.112;6.776;2022-07-03T15:32:18;27.80;99.90
19868;DHT22;10096;51.112;6.776;2022-07-03T15:34:45;27.80;99.90
19868;DHT22;10096;51.112;6.776;2022-07-03T15:37:24;28.20;99.90
19868;DHT22;10096;51.112;6.776;2022-07-03T15:39:57;28.40;99.90
19868;DHT22;10096;51.112;6.776;2022-07-03T15:42:41;28.40;99.90
19868;DHT22;10096;51.112;6.776;2022-07-03T15:45:26;28.50;99.90
19868;DHT22;10096;51.112;6.776;2022-07-03T15:48:03;28.10;99.90
19868;DHT22;10096;51.112;6.776;2022-07-03T15:50:40;28.30;99.90
19868;DHT22;10096;51.112;6.776;2022-07-03T15:53:14;28.20;99.90
19868;DHT22;10096;51.112;6.776;2022-07-03T15:55:46;27.80;99.90
19868;DHT22;10096;51.112;6.776;2022-07-03T15:58:15;27.60;99.90